createdAt,value
2018-09-28T00:01:57.752Z,8.83
2018-09-28T00:04:39.246Z,9.17
2018-09-28T00:07:20.206Z,13.63
2018-09-28T00:10:01.874Z,7.07
2018-09-28T00:12:44.068Z,15.03
2018-09-28T00:15:26.700Z,7.57
2018-09-28T00:18:08.836Z,12.77
2018-09-28T00:20:50.175Z,14.40
2018-09-28T00:23:31.761Z,10.73
2018-09-28T00:26:13.375Z,13.03
2018-09-28T00:28:54.961Z,10.00
2018-09-28T00:31:36.944Z,15.63
2018-09-28T00:34:18.221Z,12.60
2018-09-28T00:37:00.013Z,12.50
2018-09-28T00:39:41.629Z,10.90
2018-09-28T00:42:23.293Z,8.67
2018-09-28T00:45:04.984Z,9.20
2018-09-28T00:47:47.007Z,7.07
2018-09-28T00:50:28.079Z,7.70
2018-09-28T00:53:09.851Z,8.57
2018-09-28T00:55:51.439Z,8.00
2018-09-28T00:58:32.967Z,10.80
2018-09-28T01:01:13.927Z,10.97
2018-09-28T01:03:55.796Z,11.53
2018-09-28T01:06:37.793Z,6.60
2018-09-28T01:09:19.995Z,8.90
2018-09-28T01:12:01.281Z,10.17
2018-09-28T01:14:42.686Z,10.83
2018-09-28T01:17:25.383Z,13.50
2018-09-28T01:20:06.966Z,9.87
2018-09-28T01:22:48.373Z,8.50
2018-09-28T01:25:29.962Z,11.10
2018-09-28T01:28:11.446Z,9.50
2018-09-28T01:30:53.220Z,8.47
2018-09-28T01:33:34.617Z,13.10
2018-09-28T01:36:16.394Z,9.50
2018-09-28T01:38:57.584Z,12.53
2018-09-28T01:41:39.391Z,7.00
2018-09-28T01:44:21.567Z,10.60
2018-09-28T01:47:02.803Z,8.57
2018-09-28T01:49:44.776Z,9.17
2018-09-28T01:52:25.635Z,9.07
2018-09-28T01:55:07.204Z,14.57
2018-09-28T01:57:49.000Z,7.33
2018-09-28T02:00:30.279Z,12.27
2018-09-28T02:03:12.189Z,9.77
2018-09-28T02:05:53.764Z,11.90
2018-09-28T02:08:35.487Z,5.33
2018-09-28T02:11:17.144Z,7.10
2018-09-28T02:13:58.426Z,8.27
2018-09-28T02:16:40.253Z,9.80
2018-09-28T02:19:21.231Z,8.67
2018-09-28T02:22:02.990Z,7.60
2018-09-28T02:24:44.478Z,8.60
2018-09-28T02:27:26.169Z,8.93
2018-09-28T02:30:07.755Z,7.13
2018-09-28T02:32:49.782Z,6.00
2018-09-28T02:35:31.035Z,7.87
2018-09-28T02:38:12.544Z,7.10
2018-09-28T02:40:54.234Z,5.73
2018-09-28T02:43:36.956Z,7.67
2018-09-28T02:46:18.326Z,7.37
2018-09-28T02:49:00.354Z,8.33
2018-09-28T02:51:41.486Z,11.77
2018-09-28T02:54:23.409Z,7.43
2018-09-28T02:57:04.796Z,6.07
2018-09-28T02:59:46.719Z,7.27
2018-09-28T03:02:28.659Z,8.67
2018-09-28T03:05:09.840Z,7.70
2018-09-28T03:07:52.055Z,8.17
2018-09-28T03:10:33.116Z,6.63
2018-09-28T03:13:14.622Z,14.00
2018-09-28T03:15:56.491Z,9.73
2018-09-28T03:18:38.086Z,6.93
2018-09-28T03:21:19.706Z,11.23
2018-09-28T03:24:02.419Z,13.10
2018-09-28T03:26:44.082Z,9.13
2018-09-28T03:29:25.674Z,6.23
2018-09-28T03:32:07.975Z,10.73
2018-09-28T03:34:48.949Z,7.13
2018-09-28T03:37:30.539Z,14.60
2018-09-28T03:40:12.027Z,9.47
2018-09-28T03:42:53.541Z,8.57
2018-09-28T03:45:35.027Z,8.17
2018-09-28T03:48:16.440Z,7.93
2018-09-28T03:50:57.968Z,8.57
2018-09-28T03:53:40.044Z,8.70
2018-09-28T03:56:21.276Z,9.00
2018-09-28T03:59:03.144Z,8.27
2018-09-28T04:01:44.659Z,6.37
2018-09-28T04:04:26.257Z,5.87
2018-09-28T04:07:08.275Z,10.43
2018-09-28T04:09:49.711Z,14.37
2018-09-28T04:12:31.109Z,9.67
2018-09-28T04:15:12.552Z,9.63
2018-09-28T04:17:54.267Z,11.97
2018-09-28T04:20:35.872Z,8.90
2018-09-28T04:23:17.362Z,11.23
2018-09-28T04:25:59.152Z,10.30
2018-09-28T04:28:41.466Z,12.60
2018-09-28T04:31:22.438Z,14.33
2018-09-28T04:34:04.030Z,6.90
2018-09-28T04:36:46.029Z,10.07
2018-09-28T04:39:29.017Z,17.90
2018-09-28T04:42:10.636Z,14.03
2018-09-28T04:44:52.404Z,19.93
2018-09-28T04:47:34.009Z,11.67
2018-09-28T04:50:16.091Z,11.70
2018-09-28T04:52:57.581Z,9.43
2018-09-28T04:55:38.960Z,6.50
2018-09-28T04:58:20.344Z,10.27
2018-09-28T05:01:01.951Z,11.33
2018-09-28T05:03:44.144Z,19.23
2018-09-28T05:06:25.134Z,10.87
2018-09-28T05:09:07.226Z,9.70
2018-09-28T05:11:48.313Z,8.17
2018-09-28T05:14:29.671Z,10.00
2018-09-28T05:17:11.171Z,8.10
2018-09-28T05:19:53.686Z,12.20
2018-09-28T05:22:34.748Z,9.43
2018-09-28T05:25:16.302Z,11.00
2018-09-28T05:27:58.148Z,20.47
2018-09-28T05:30:44.974Z,11.50
2018-09-28T05:33:21.404Z,8.43
2018-09-28T05:36:02.992Z,10.53
2018-09-28T05:38:45.077Z,10.10
2018-09-28T05:41:26.504Z,7.60
2018-09-28T05:44:08.106Z,10.03
2018-09-28T05:46:49.661Z,7.53
2018-09-28T05:49:31.366Z,20.97
2018-09-28T05:52:13.244Z,12.37
2018-09-28T05:54:54.939Z,15.03
2018-09-28T05:57:36.952Z,23.87
2018-09-28T06:00:23.126Z,15.70
2018-09-28T06:03:06.276Z,19.13
2018-09-28T06:05:52.638Z,15.20
2018-09-28T06:08:34.371Z,9.13
2018-09-28T06:11:15.858Z,12.83
2018-09-28T06:13:57.445Z,12.03
2018-09-28T06:16:38.661Z,30.10
2018-09-28T06:19:19.879Z,13.97
2018-09-28T06:22:01.892Z,15.30
2018-09-28T06:24:43.761Z,18.10
2018-09-28T06:27:25.279Z,9.90
2018-09-28T06:30:07.289Z,17.60
2018-09-28T06:32:48.875Z,19.90
2018-09-28T06:35:29.664Z,12.53
2018-09-28T06:38:11.317Z,14.23
2018-09-28T06:40:53.324Z,23.90
2018-09-28T06:43:35.174Z,32.63
2018-09-28T06:46:16.180Z,33.00
2018-09-28T06:48:57.802Z,22.67
2018-09-28T06:51:39.371Z,16.67
2018-09-28T06:54:21.222Z,18.77
2018-09-28T06:57:02.942Z,13.63
2018-09-28T06:59:44.380Z,19.13
2018-09-28T07:02:26.318Z,21.60
2018-09-28T07:05:07.932Z,19.23
2018-09-28T07:07:49.395Z,32.07
2018-09-28T07:10:31.213Z,26.63
2018-09-28T07:13:13.685Z,21.00
2018-09-28T07:15:55.508Z,21.60
2018-09-28T07:18:37.199Z,159.10
2018-09-28T07:21:18.869Z,275.90
2018-09-28T07:24:00.725Z,153.20
2018-09-28T07:26:41.969Z,141.63
2018-09-28T07:29:23.662Z,24.07
2018-09-28T07:32:05.927Z,16.63
2018-09-28T07:34:47.654Z,11.20
2018-09-28T07:37:28.618Z,23.77
2018-09-28T07:40:11.120Z,15.63
2018-09-28T07:42:52.838Z,21.87
2018-09-28T07:45:34.824Z,18.17
2018-09-28T07:48:16.438Z,14.53
2018-09-28T07:50:57.909Z,14.70
2018-09-28T07:53:39.947Z,13.37
2018-09-28T07:56:21.075Z,13.90
2018-09-28T07:59:02.583Z,17.73
2018-09-28T08:01:44.360Z,12.87
2018-09-28T08:04:25.944Z,17.47
2018-09-28T08:07:07.442Z,22.03
2018-09-28T08:09:49.308Z,22.53
2018-09-28T08:12:31.903Z,22.33
2018-09-28T08:15:12.998Z,18.50
2018-09-28T08:17:54.578Z,17.47
2018-09-28T08:20:35.860Z,15.40
2018-09-28T08:23:17.709Z,16.60
2018-09-28T08:25:59.168Z,18.10
2018-09-28T08:28:40.839Z,20.73
2018-09-28T08:31:22.547Z,18.53
2018-09-28T08:34:04.138Z,13.80
2018-09-28T08:36:45.614Z,13.20
2018-09-28T08:39:27.842Z,16.63
2018-09-28T08:42:08.918Z,18.80
2018-09-28T08:44:50.493Z,18.07
2018-09-28T08:47:32.367Z,18.93
2018-09-28T08:50:13.563Z,16.47
2018-09-28T08:52:55.175Z,14.07
2018-09-28T08:55:36.747Z,15.30
2018-09-28T08:58:18.415Z,13.13
2018-09-28T09:00:59.918Z,11.60
2018-09-28T09:03:41.592Z,15.30
2018-09-28T09:06:23.387Z,20.47
2018-09-28T09:09:06.015Z,24.83
2018-09-28T09:11:47.417Z,22.87
2018-09-28T09:14:29.573Z,14.63
2018-09-28T09:17:10.762Z,12.03
2018-09-28T09:19:52.350Z,10.47
2018-09-28T09:22:33.935Z,12.87
2018-09-28T09:25:15.631Z,15.03
2018-09-28T09:27:57.249Z,17.30
2018-09-28T09:30:39.317Z,14.30
2018-09-28T09:33:20.291Z,33.53
2018-09-28T09:36:01.779Z,16.10
2018-09-28T09:38:43.264Z,10.50
2018-09-28T09:41:25.056Z,17.10
2018-09-28T09:44:06.684Z,19.60
2018-09-28T09:46:48.664Z,10.67
2018-09-28T09:49:30.688Z,15.83
2018-09-28T09:52:11.926Z,10.33
2018-09-28T09:58:01.220Z,12.97
2018-09-28T10:00:47.747Z,12.77
2018-09-28T10:03:34.325Z,18.67
2018-09-28T10:06:16.018Z,15.37
2018-09-28T10:08:57.710Z,10.03
2018-09-28T10:11:39.419Z,14.23
2018-09-28T10:14:21.006Z,17.70
2018-09-28T10:17:02.678Z,10.43
2018-09-28T10:19:44.474Z,10.43
2018-09-28T10:22:26.511Z,11.93
2018-09-28T10:25:07.442Z,12.27
2018-09-28T10:27:48.905Z,9.50
2018-09-28T10:30:30.697Z,13.77
2018-09-28T10:33:12.105Z,11.20
2018-09-28T10:35:53.659Z,13.60
2018-09-28T10:38:35.833Z,14.60
2018-09-28T10:41:16.974Z,13.23
2018-09-28T10:43:58.872Z,13.57
2018-09-28T10:46:40.480Z,21.17
2018-09-28T10:49:22.052Z,11.53
2018-09-28T10:52:03.842Z,11.47
2018-09-28T10:54:45.434Z,12.93
2018-09-28T10:57:27.946Z,10.50
2018-09-28T11:00:08.912Z,13.60
2018-09-28T11:02:51.282Z,9.83
2018-09-28T11:05:32.424Z,9.80
2018-09-28T11:08:14.567Z,9.90
2018-09-28T11:10:56.004Z,10.13
2018-09-28T11:13:38.340Z,10.03
2018-09-28T11:16:19.489Z,12.87
2018-09-28T11:19:01.251Z,12.63
2018-09-28T11:21:42.302Z,11.57
2018-09-28T11:24:23.951Z,17.00
2018-09-28T11:27:06.350Z,8.80
2018-09-28T11:29:47.636Z,10.70
2018-09-28T11:32:29.426Z,13.20
2018-09-28T11:35:11.537Z,17.93
2018-09-28T11:37:52.733Z,11.97
2018-09-28T11:40:33.989Z,10.63
2018-09-28T11:43:15.800Z,9.40
2018-09-28T11:45:57.775Z,12.63
2018-09-28T11:48:39.060Z,16.37
2018-09-28T11:51:20.748Z,9.53
2018-09-28T11:54:02.232Z,15.67
2018-09-28T11:56:43.927Z,12.10
2018-09-28T11:59:25.620Z,16.90
2018-09-28T12:02:07.671Z,19.53
2018-09-28T12:04:48.505Z,10.93
2018-09-28T12:07:30.264Z,8.77
2018-09-28T12:10:12.210Z,13.10
2018-09-28T12:12:53.663Z,23.87
2018-09-28T12:15:35.619Z,14.33
2018-09-28T12:18:17.206Z,8.77
2018-09-28T12:20:58.851Z,11.33
2018-09-28T12:23:40.432Z,10.93
2018-09-28T12:26:22.103Z,9.30
2018-09-28T12:29:03.177Z,11.57
2018-09-28T12:31:44.765Z,18.17
2018-09-28T12:34:26.385Z,16.17
2018-09-28T12:37:08.074Z,10.77
2018-09-28T12:39:49.862Z,10.97
2018-09-28T12:42:32.220Z,12.50
2018-09-28T12:45:13.431Z,13.83
2018-09-28T12:47:55.056Z,9.70
2018-09-28T12:50:36.534Z,7.70
2018-09-28T12:53:17.910Z,14.33
2018-09-28T12:55:59.702Z,15.90
2018-09-28T12:58:41.175Z,9.60
2018-09-28T13:01:22.572Z,19.73
2018-09-28T13:04:04.136Z,10.07
2018-09-28T13:06:46.137Z,13.53
2018-09-28T13:09:27.212Z,11.97
2018-09-28T13:12:09.045Z,14.03
2018-09-28T13:14:50.550Z,11.83
2018-09-28T13:17:32.007Z,8.63
2018-09-28T13:20:14.316Z,10.83
2018-09-28T13:22:56.186Z,13.67
2018-09-28T13:25:37.385Z,11.37
2018-09-28T13:28:19.066Z,22.77
2018-09-28T13:31:00.770Z,9.33
2018-09-28T13:33:42.551Z,13.30
2018-09-28T13:36:23.856Z,10.40
2018-09-28T13:39:06.169Z,8.07
2018-09-28T13:41:47.092Z,6.00
2018-09-28T13:44:28.923Z,11.97
2018-09-28T13:47:10.021Z,11.27
2018-09-28T13:49:51.366Z,9.90
2018-09-28T13:52:32.336Z,7.47
2018-09-28T13:55:14.118Z,7.27
2018-09-28T13:57:56.429Z,12.07
2018-09-28T14:00:38.355Z,11.97
2018-09-28T14:03:19.394Z,14.53
2018-09-28T14:06:01.291Z,8.83
2018-09-28T14:08:42.442Z,13.33
2018-09-28T14:11:24.323Z,13.03
2018-09-28T14:14:06.360Z,14.30
2018-09-28T14:16:47.513Z,11.70
2018-09-28T14:19:30.150Z,13.93
2018-09-28T14:22:11.845Z,13.50
2018-09-28T14:24:54.239Z,14.73
2018-09-28T14:27:35.344Z,9.10
2018-09-28T14:30:17.099Z,9.33
2018-09-28T14:32:58.811Z,9.10
2018-09-28T14:35:40.635Z,14.77
2018-09-28T14:38:22.124Z,9.80
2018-09-28T14:41:02.878Z,16.70
2018-09-28T14:43:43.651Z,12.47
2018-09-28T14:46:25.331Z,25.00
2018-09-28T14:49:06.991Z,11.33
2018-09-28T14:51:48.396Z,12.63
2018-09-28T14:54:29.250Z,18.17
2018-09-28T14:57:10.859Z,9.27
2018-09-28T14:59:52.134Z,12.67
2018-09-28T15:02:33.796Z,7.30
2018-09-28T15:05:15.315Z,10.83
2018-09-28T15:07:57.331Z,10.83
2018-09-28T15:10:38.341Z,10.80
2018-09-28T15:13:19.974Z,18.60
2018-09-28T15:16:01.566Z,13.60
2018-09-28T15:18:43.111Z,12.33
2018-09-28T15:21:25.001Z,8.20
2018-09-28T15:24:06.505Z,8.00
2018-09-28T15:26:48.244Z,10.77
2018-09-28T15:29:29.722Z,12.10
2018-09-28T15:32:12.050Z,8.83
2018-09-28T15:34:52.816Z,14.40
2018-09-28T15:37:35.289Z,10.50
2018-09-28T15:40:16.786Z,14.00
2018-09-28T15:42:57.757Z,11.60
2018-09-28T15:45:39.343Z,14.53
2018-09-28T15:48:21.246Z,14.00
2018-09-28T15:51:03.256Z,13.53
2018-09-28T15:53:44.506Z,14.33
2018-09-28T15:56:25.437Z,9.93
2018-09-28T15:59:07.696Z,11.60
2018-09-28T16:01:48.875Z,6.93
2018-09-28T16:04:31.131Z,13.60
2018-09-28T16:07:12.290Z,9.77
2018-09-28T16:09:53.231Z,8.03
2018-09-28T16:12:35.050Z,15.63
2018-09-28T16:15:16.028Z,12.57
2018-09-28T16:17:57.824Z,15.13
2018-09-28T16:20:38.787Z,13.47
2018-09-28T16:23:20.308Z,8.60
2018-09-28T16:26:02.150Z,9.60
2018-09-28T16:28:44.149Z,10.43
2018-09-28T16:31:25.490Z,11.57
2018-09-28T16:34:07.279Z,20.97
2018-09-28T16:36:48.864Z,8.43
2018-09-28T16:39:30.110Z,16.47
2018-09-28T16:42:11.992Z,11.60
2018-09-28T16:44:53.296Z,9.53
2018-09-28T16:47:35.103Z,7.23
2018-09-28T16:50:16.876Z,6.73
2018-09-28T16:52:58.344Z,10.87
2018-09-28T16:55:40.567Z,10.30
2018-09-28T16:58:21.999Z,11.90
2018-09-28T17:01:03.620Z,10.30
2018-09-28T17:03:45.126Z,10.10
2018-09-28T17:06:26.922Z,5.77
2018-09-28T17:09:09.539Z,9.20
2018-09-28T17:11:51.406Z,6.87
2018-09-28T17:14:33.132Z,6.10
2018-09-28T17:17:14.992Z,6.93
2018-09-28T17:19:56.552Z,8.03
2018-09-28T17:22:38.399Z,11.43
2018-09-28T17:25:20.271Z,5.50
2018-09-28T17:28:02.064Z,12.33
2018-09-28T17:30:43.756Z,6.80
2018-09-28T17:33:25.675Z,8.37
2018-09-28T17:36:07.544Z,12.30
2018-09-28T17:38:50.079Z,6.37
2018-09-28T17:41:31.748Z,6.60
2018-09-28T17:44:13.232Z,9.53
2018-09-28T17:46:54.840Z,6.60
2018-09-28T17:49:36.614Z,9.30
2018-09-28T17:52:18.318Z,8.20
2018-09-28T17:54:59.893Z,10.03
2018-09-28T17:57:42.558Z,13.20
2018-09-28T18:00:24.303Z,12.43
2018-09-28T18:03:06.168Z,10.33
2018-09-28T18:05:48.600Z,9.00
2018-09-28T18:08:30.217Z,8.80
2018-09-28T18:11:11.107Z,8.10
2018-09-28T18:13:52.958Z,6.00
2018-09-28T18:16:35.391Z,9.43
2018-09-28T18:19:17.158Z,11.23
2018-09-28T18:21:59.304Z,8.33
2018-09-28T18:24:40.972Z,8.30
2018-09-28T18:27:22.024Z,6.97
2018-09-28T18:30:03.736Z,8.63
2018-09-28T18:32:44.794Z,8.27
2018-09-28T18:35:26.407Z,6.63
2018-09-28T18:38:08.096Z,8.17
2018-09-28T18:40:49.219Z,10.30
2018-09-28T18:43:30.978Z,9.57
2018-09-28T18:46:12.656Z,13.83
2018-09-28T18:48:54.138Z,4.90
2018-09-28T18:51:35.713Z,5.97
2018-09-28T18:54:17.302Z,10.17
2018-09-28T18:56:59.031Z,15.73
2018-09-28T18:59:40.780Z,5.93
2018-09-28T19:02:22.398Z,9.47
2018-09-28T19:05:04.180Z,6.53
2018-09-28T19:07:45.592Z,12.83
2018-09-28T19:10:26.418Z,12.17
2018-09-28T19:13:08.784Z,13.93
2018-09-28T19:15:49.622Z,7.53
2018-09-28T19:18:31.307Z,10.33
2018-09-28T19:21:13.014Z,6.73
2018-09-28T19:23:54.975Z,9.40
2018-09-28T19:26:36.655Z,11.40
2018-09-28T19:29:18.275Z,7.43
2018-09-28T19:32:00.895Z,10.07
2018-09-28T19:34:42.495Z,16.80
2018-09-28T19:37:23.459Z,6.90
2018-09-28T19:40:04.539Z,10.67
2018-09-28T19:42:46.492Z,16.27
2018-09-28T19:45:27.914Z,8.50
2018-09-28T19:48:09.746Z,10.90
2018-09-28T19:50:51.188Z,9.47
2018-09-28T19:53:32.862Z,8.57
2018-09-28T19:56:14.783Z,5.97
2018-09-28T19:58:56.546Z,11.77
2018-09-28T20:01:39.468Z,6.07
2018-09-28T20:04:20.769Z,14.00
2018-09-28T20:07:02.541Z,7.17
2018-09-28T20:09:44.156Z,6.37
2018-09-28T20:12:25.951Z,8.20
2018-09-28T20:15:08.437Z,7.57
2018-09-28T20:17:49.509Z,6.00
2018-09-28T20:20:31.101Z,8.27
2018-09-28T20:23:12.792Z,9.63
2018-09-28T20:25:54.479Z,9.20
2018-09-28T20:28:35.969Z,6.37
2018-09-28T20:31:17.758Z,3.60
2018-09-28T20:33:59.762Z,6.80
2018-09-28T20:36:43.600Z,5.30
2018-09-28T20:39:25.386Z,4.53
2018-09-28T20:42:06.980Z,6.53
2018-09-28T20:44:49.289Z,6.90
2018-09-28T20:47:31.180Z,4.10
2018-09-28T20:50:13.181Z,14.23
2018-09-28T20:52:54.360Z,8.97
2018-09-28T20:55:35.902Z,9.17
2018-09-28T20:58:17.353Z,3.57
2018-09-28T21:00:58.990Z,4.67
2018-09-28T21:03:40.510Z,6.90
2018-09-28T21:06:22.097Z,12.73
2018-09-28T21:09:03.708Z,8.03
2018-09-28T21:11:45.403Z,14.83
2018-09-28T21:14:27.068Z,12.00
2018-09-28T21:17:08.657Z,14.30
2018-09-28T21:19:50.382Z,5.40
2018-09-28T21:22:31.235Z,12.47
2018-09-28T21:25:13.038Z,3.07
2018-09-28T21:27:55.727Z,7.80
2018-09-28T21:30:37.555Z,5.90
2018-09-28T21:33:18.943Z,9.07
2018-09-28T21:36:00.620Z,5.97
2018-09-28T21:38:42.387Z,6.27
2018-09-28T21:41:24.637Z,8.63
2018-09-28T21:44:05.823Z,7.37
2018-09-28T21:46:47.258Z,7.30
2018-09-28T21:49:28.943Z,6.00
2018-09-28T21:52:10.533Z,11.40
2018-09-28T21:54:52.224Z,6.60
2018-09-28T21:57:34.352Z,8.57
2018-09-28T22:00:15.411Z,14.73
2018-09-28T22:02:56.858Z,4.70
2018-09-28T22:05:38.476Z,11.27
2018-09-28T22:08:19.988Z,5.33
2018-09-28T22:11:01.756Z,8.17
2018-09-28T22:13:43.301Z,11.73
2018-09-28T22:16:24.829Z,8.07
2018-09-28T22:19:07.033Z,12.40
2018-09-28T22:21:48.391Z,10.20
2018-09-28T22:24:29.599Z,11.57
2018-09-28T22:27:11.551Z,7.00
2018-09-28T22:29:53.182Z,8.97
2018-09-28T22:32:34.980Z,6.43
2018-09-28T22:35:17.417Z,10.27
2018-09-28T22:37:58.479Z,4.83
2018-09-28T22:40:40.172Z,8.73
2018-09-28T22:43:22.353Z,6.63
2018-09-28T22:46:03.430Z,9.17
2018-09-28T22:48:45.122Z,4.80
2018-09-28T22:51:26.629Z,6.50
2018-09-28T22:54:08.118Z,4.43
2018-09-28T22:56:49.995Z,5.90
2018-09-28T22:59:31.817Z,7.13
2018-09-28T23:02:13.573Z,5.40
2018-09-28T23:04:55.700Z,5.30
2018-09-28T23:07:37.012Z,7.70
2018-09-28T23:10:18.954Z,6.13
2018-09-28T23:13:00.134Z,8.30
2018-09-28T23:15:41.825Z,10.00
2018-09-28T23:18:23.598Z,5.70
2018-09-28T23:21:04.901Z,7.97
2018-09-28T23:23:46.848Z,6.70
2018-09-28T23:26:28.688Z,4.60
2018-09-28T23:29:10.492Z,5.63
2018-09-28T23:31:51.978Z,11.80
2018-09-28T23:34:33.578Z,7.03
2018-09-28T23:37:15.631Z,7.83
2018-09-28T23:39:56.972Z,3.17
2018-09-28T23:42:38.635Z,4.80
2018-09-28T23:45:20.324Z,4.23
2018-09-28T23:48:01.952Z,7.60
2018-09-28T23:50:43.602Z,5.70
2018-09-28T23:53:25.290Z,5.47
2018-09-28T23:56:07.104Z,4.97
2018-09-28T23:58:48.777Z,7.13
